Weather at Tønsberg Heliport, Hospital

Public forecast

Using degrees Celsius for public forecast. Weather courtesy of forecast.io.

Closest aviation weather report (METAR) to Tønsberg Heliport, Hospital

Closest report is Sandefjord Airport, Torp, 7.1 nm (13.2 km) SW.

2024/05/20 17:50 (retrieved 13 minutes ago)

ENTO 201750Z 13003KT CAVOK 19/05 Q1018 NOSIG

Closest aviation forecast (TAF) to Tønsberg Heliport, Hospital

Closest forecast is Sandefjord Airport, Torp, 7.1 nm (13.2 km) SW.

2024/05/20 18:39 (retrieved 0 seconds ago)

TAF ENTO 201700Z 2018/2118 06007KT CAVOK